Crooked Lake, Michigan
Current Conditions -  °F | °C
As of 2:14 PM on Friday 24 Oct 2014 (Local Time) from KOZW Reporting Station
Broken Clouds Broken Clouds  
Wind Chill: 58°   Ceiling: 4800
Heat Index: 58°   Visibility: 10mi
Dew Point: 45°   Wind: 5mph
Humidity: 62%   Direction: 190°S
Pressure: 30"   Gusts: NA
Location:  42.5333°N, 83.7735°W
Report Text: KOZW 241814Z AUTO 19004KT 10SM SCT029 BKN048 14/07 A3000 RMK AO2 T01430071
Loading
Personal Weather Stations






























Interactive Weather Map
Tropical Storm Tracking
New forecast layout! Learn more

10-Day Weather Forecast

Advertisements
Track Severe Weather on mobile